sensor_id;sensor_type;location;lat;lon;timestamp;P1;durP1;ratioP1;P2;durP2;ratioP2
20482;SDS011;10400;53.198;6.592;2023-08-06T00:00:21;19.55;;;15.57;;
20482;SDS011;10400;53.198;6.592;2023-08-06T00:02:47;21.33;;;16.45;;
20482;SDS011;10400;53.198;6.592;2023-08-06T00:05:13;20.50;;;17.27;;
20482;SDS011;10400;53.198;6.592;2023-08-06T00:07:43;23.40;;;17.83;;
20482;SDS011;10400;53.198;6.592;2023-08-06T00:10:09;23.95;;;18.90;;
20482;SDS011;10400;53.198;6.592;2023-08-06T00:12:35;21.52;;;17.90;;
20482;SDS011;10400;53.198;6.592;2023-08-06T00:15:01;19.45;;;17.15;;
20482;SDS011;10400;53.198;6.592;2023-08-06T00:17:27;17.58;;;13.50;;
20482;SDS011;10400;53.198;6.592;2023-08-06T00:19:52;15.73;;;12.88;;
20482;SDS011;10400;53.198;6.592;2023-08-06T00:22:18;11.38;;;9.80;;
20482;SDS011;10400;53.198;6.592;2023-08-06T00:24:44;12.88;;;8.57;;
20482;SDS011;10400;53.198;6.592;2023-08-06T00:27:09;11.45;;;8.95;;
20482;SDS011;10400;53.198;6.592;2023-08-06T00:29:35;9.63;;;8.57;;
20482;SDS011;10400;53.198;6.592;2023-08-06T00:32:01;11.20;;;8.70;;
20482;SDS011;10400;53.198;6.592;2023-08-06T00:34:26;13.13;;;8.65;;
20482;SDS011;10400;53.198;6.592;2023-08-06T00:36:52;9.90;;;8.82;;
20482;SDS011;10400;53.198;6.592;2023-08-06T00:39:18;11.55;;;8.80;;
20482;SDS011;10400;53.198;6.592;2023-08-06T00:41:44;11.23;;;8.27;;
20482;SDS011;10400;53.198;6.592;2023-08-06T00:44:10;15.32;;;11.35;;
20482;SDS011;10400;53.198;6.592;2023-08-06T00:46:35;19.75;;;14.57;;
20482;SDS011;10400;53.198;6.592;2023-08-06T00:49:01;19.10;;;14.30;;
20482;SDS011;10400;53.198;6.592;2023-08-06T00:51:27;19.17;;;15.65;;
20482;SDS011;10400;53.198;6.592;2023-08-06T00:53:53;18.92;;;15.88;;
20482;SDS011;10400;53.198;6.592;2023-08-06T00:56:19;18.42;;;16.45;;
20482;SDS011;10400;53.198;6.592;2023-08-06T00:58:45;19.98;;;16.05;;
20482;SDS011;10400;53.198;6.592;2023-08-06T01:01:11;19.65;;;17.55;;
20482;SDS011;10400;53.198;6.592;2023-08-06T01:03:37;22.75;;;17.55;;
20482;SDS011;10400;53.198;6.592;2023-08-06T01:06:03;23.30;;;17.75;;
20482;SDS011;10400;53.198;6.592;2023-08-06T01:13:59;15.00;;;10.90;;
20482;SDS011;10400;53.198;6.592;2023-08-06T01:16:31;12.13;;;8.48;;
20482;SDS011;10400;53.198;6.592;2023-08-06T01:18:58;11.43;;;8.23;;
20482;SDS011;10400;53.198;6.592;2023-08-06T01:21:24;10.27;;;8.27;;
20482;SDS011;10400;53.198;6.592;2023-08-06T01:23:50;9.43;;;8.13;;
20482;SDS011;10400;53.198;6.592;2023-08-06T01:26:29;10.32;;;8.32;;
20482;SDS011;10400;53.198;6.592;2023-08-06T01:31:50;13.40;;;8.50;;
20482;SDS011;10400;53.198;6.592;2023-08-06T01:34:21;14.32;;;9.20;;
20482;SDS011;10400;53.198;6.592;2023-08-06T01:36:48;11.23;;;8.93;;
20482;SDS011;10400;53.198;6.592;2023-08-06T01:39:15;10.10;;;8.75;;
20482;SDS011;10400;53.198;6.592;2023-08-06T01:41:41;13.02;;;9.85;;
20482;SDS011;10400;53.198;6.592;2023-08-06T01:44:06;16.75;;;9.75;;
20482;SDS011;10400;53.198;6.592;2023-08-06T01:46:32;13.73;;;10.48;;
20482;SDS011;10400;53.198;6.592;2023-08-06T01:48:58;15.57;;;10.77;;
20482;SDS011;10400;53.198;6.592;2023-08-06T01:51:23;13.25;;;9.75;;
20482;SDS011;10400;53.198;6.592;2023-08-06T01:53:49;13.45;;;10.00;;
20482;SDS011;10400;53.198;6.592;2023-08-06T01:56:15;12.20;;;9.82;;
20482;SDS011;10400;53.198;6.592;2023-08-06T01:58:40;16.02;;;10.10;;
20482;SDS011;10400;53.198;6.592;2023-08-06T02:01:06;12.85;;;9.93;;
20482;SDS011;10400;53.198;6.592;2023-08-06T02:03:32;13.10;;;10.18;;
20482;SDS011;10400;53.198;6.592;2023-08-06T02:05:57;13.85;;;10.85;;
20482;SDS011;10400;53.198;6.592;2023-08-06T02:08:23;11.85;;;10.10;;
20482;SDS011;10400;53.198;6.592;2023-08-06T02:10:49;13.73;;;10.45;;
20482;SDS011;10400;53.198;6.592;2023-08-06T02:13:14;19.42;;;16.02;;
20482;SDS011;10400;53.198;6.592;2023-08-06T02:15:43;19.75;;;15.93;;
20482;SDS011;10400;53.198;6.592;2023-08-06T02:18:10;20.65;;;15.98;;
20482;SDS011;10400;53.198;6.592;2023-08-06T02:20:35;19.38;;;16.27;;
20482;SDS011;10400;53.198;6.592;2023-08-06T02:23:01;18.80;;;15.75;;
20482;SDS011;10400;53.198;6.592;2023-08-06T02:25:27;21.85;;;18.55;;
20482;SDS011;10400;53.198;6.592;2023-08-06T02:27:52;22.88;;;18.58;;
20482;SDS011;10400;53.198;6.592;2023-08-06T02:30:18;26.17;;;19.33;;
20482;SDS011;10400;53.198;6.592;2023-08-06T02:32:44;25.45;;;19.25;;
20482;SDS011;10400;53.198;6.592;2023-08-06T02:35:09;23.85;;;18.83;;
20482;SDS011;10400;53.198;6.592;2023-08-06T02:37:35;20.27;;;15.02;;
20482;SDS011;10400;53.198;6.592;2023-08-06T02:40:01;15.40;;;13.70;;
20482;SDS011;10400;53.198;6.592;2023-08-06T02:42:27;17.00;;;13.27;;
20482;SDS011;10400;53.198;6.592;2023-08-06T02:44:53;14.25;;;12.75;;
20482;SDS011;10400;53.198;6.592;2023-08-06T02:47:21;14.98;;;12.27;;
20482;SDS011;10400;53.198;6.592;2023-08-06T02:49:47;15.80;;;12.82;;
20482;SDS011;10400;53.198;6.592;2023-08-06T02:52:12;12.90;;;11.07;;
20482;SDS011;10400;53.198;6.592;2023-08-06T02:54:38;14.65;;;12.43;;
20482;SDS011;10400;53.198;6.592;2023-08-06T02:57:04;14.93;;;12.23;;
20482;SDS011;10400;53.198;6.592;2023-08-06T02:59:30;16.05;;;12.75;;
20482;SDS011;10400;53.198;6.592;2023-08-06T03:01:56;15.07;;;12.05;;
20482;SDS011;10400;53.198;6.592;2023-08-06T03:04:22;17.50;;;12.45;;
20482;SDS011;10400;53.198;6.592;2023-08-06T03:06:51;14.30;;;11.65;;
20482;SDS011;10400;53.198;6.592;2023-08-06T03:09:17;16.75;;;13.02;;
20482;SDS011;10400;53.198;6.592;2023-08-06T03:11:43;16.73;;;13.27;;
20482;SDS011;10400;53.198;6.592;2023-08-06T03:14:09;16.13;;;12.50;;
20482;SDS011;10400;53.198;6.592;2023-08-06T03:16:35;14.43;;;11.73;;
20482;SDS011;10400;53.198;6.592;2023-08-06T03:19:00;16.33;;;12.65;;
20482;SDS011;10400;53.198;6.592;2023-08-06T03:21:26;16.65;;;12.43;;
20482;SDS011;10400;53.198;6.592;2023-08-06T03:23:52;14.20;;;11.68;;
20482;SDS011;10400;53.198;6.592;2023-08-06T03:26:18;15.48;;;11.25;;
20482;SDS011;10400;53.198;6.592;2023-08-06T03:28:43;13.98;;;11.13;;
20482;SDS011;10400;53.198;6.592;2023-08-06T03:31:09;13.82;;;11.68;;
20482;SDS011;10400;53.198;6.592;2023-08-06T03:33:35;14.50;;;11.88;;
20482;SDS011;10400;53.198;6.592;2023-08-06T03:36:00;15.50;;;11.25;;
20482;SDS011;10400;53.198;6.592;2023-08-06T03:38:26;18.30;;;12.15;;
20482;SDS011;10400;53.198;6.592;2023-08-06T03:40:52;18.15;;;11.20;;
20482;SDS011;10400;53.198;6.592;2023-08-06T03:43:18;16.83;;;11.52;;
20482;SDS011;10400;53.198;6.592;2023-08-06T03:45:44;12.60;;;10.93;;
20482;SDS011;10400;53.198;6.592;2023-08-06T03:48:10;16.42;;;10.73;;
20482;SDS011;10400;53.198;6.592;2023-08-06T03:50:35;14.55;;;10.18;;
20482;SDS011;10400;53.198;6.592;2023-08-06T03:53:01;13.82;;;10.43;;
20482;SDS011;10400;53.198;6.592;2023-08-06T03:55:27;13.65;;;10.43;;
20482;SDS011;10400;53.198;6.592;2023-08-06T03:57:53;13.15;;;10.77;;
20482;SDS011;10400;53.198;6.592;2023-08-06T04:00:18;11.77;;;9.57;;
20482;SDS011;10400;53.198;6.592;2023-08-06T04:02:44;13.38;;;10.48;;
20482;SDS011;10400;53.198;6.592;2023-08-06T04:05:10;12.38;;;10.18;;
20482;SDS011;10400;53.198;6.592;2023-08-06T04:07:35;13.32;;;10.77;;
20482;SDS011;10400;53.198;6.592;2023-08-06T04:10:02;15.55;;;10.60;;
20482;SDS011;10400;53.198;6.592;2023-08-06T04:12:29;13.80;;;11.00;;
20482;SDS011;10400;53.198;6.592;2023-08-06T04:14:57;12.35;;;9.70;;
20482;SDS011;10400;53.198;6.592;2023-08-06T04:17:24;14.15;;;11.27;;
20482;SDS011;10400;53.198;6.592;2023-08-06T04:19:53;14.70;;;10.82;;
20482;SDS011;10400;53.198;6.592;2023-08-06T04:22:20;12.65;;;10.30;;
20482;SDS011;10400;53.198;6.592;2023-08-06T04:24:46;13.20;;;11.13;;
20482;SDS011;10400;53.198;6.592;2023-08-06T04:27:13;14.48;;;10.02;;
20482;SDS011;10400;53.198;6.592;2023-08-06T04:29:39;14.73;;;10.15;;
20482;SDS011;10400;53.198;6.592;2023-08-06T04:32:05;15.98;;;10.18;;
20482;SDS011;10400;53.198;6.592;2023-08-06T04:34:33;15.95;;;10.55;;
20482;SDS011;10400;53.198;6.592;2023-08-06T04:36:59;13.20;;;10.07;;
20482;SDS011;10400;53.198;6.592;2023-08-06T04:39:25;12.95;;;9.88;;
20482;SDS011;10400;53.198;6.592;2023-08-06T04:41:51;12.00;;;9.60;;
20482;SDS011;10400;53.198;6.592;2023-08-06T04:44:17;13.15;;;10.45;;
20482;SDS011;10400;53.198;6.592;2023-08-06T04:46:42;14.63;;;10.10;;
20482;SDS011;10400;53.198;6.592;2023-08-06T04:49:08;12.23;;;9.98;;
20482;SDS011;10400;53.198;6.592;2023-08-06T04:51:34;12.27;;;9.73;;
20482;SDS011;10400;53.198;6.592;2023-08-06T04:53:59;14.50;;;10.00;;
20482;SDS011;10400;53.198;6.592;2023-08-06T04:56:25;12.88;;;10.23;;
20482;SDS011;10400;53.198;6.592;2023-08-06T04:58:51;13.90;;;9.85;;
20482;SDS011;10400;53.198;6.592;2023-08-06T05:01:17;11.32;;;9.35;;
20482;SDS011;10400;53.198;6.592;2023-08-06T05:03:42;14.38;;;10.05;;
20482;SDS011;10400;53.198;6.592;2023-08-06T05:06:08;11.35;;;9.73;;
20482;SDS011;10400;53.198;6.592;2023-08-06T05:08:34;12.80;;;10.02;;
20482;SDS011;10400;53.198;6.592;2023-08-06T05:10:59;11.15;;;8.88;;
20482;SDS011;10400;53.198;6.592;2023-08-06T05:13:25;11.73;;;8.27;;
20482;SDS011;10400;53.198;6.592;2023-08-06T05:15:53;10.38;;;8.82;;
20482;SDS011;10400;53.198;6.592;2023-08-06T05:18:19;10.38;;;9.27;;
20482;SDS011;10400;53.198;6.592;2023-08-06T05:20:44;13.25;;;9.35;;
20482;SDS011;10400;53.198;6.592;2023-08-06T05:23:10;12.82;;;8.73;;
20482;SDS011;10400;53.198;6.592;2023-08-06T05:25:36;11.60;;;8.80;;
20482;SDS011;10400;53.198;6.592;2023-08-06T05:28:05;11.40;;;9.38;;
20482;SDS011;10400;53.198;6.592;2023-08-06T05:30:30;12.02;;;8.80;;
20482;SDS011;10400;53.198;6.592;2023-08-06T05:32:56;12.43;;;9.40;;
20482;SDS011;10400;53.198;6.592;2023-08-06T05:35:22;12.90;;;9.68;;
20482;SDS011;10400;53.198;6.592;2023-08-06T05:37:48;10.65;;;8.68;;
20482;SDS011;10400;53.198;6.592;2023-08-06T05:40:15;11.35;;;9.27;;
20482;SDS011;10400;53.198;6.592;2023-08-06T05:42:41;10.43;;;8.88;;
20482;SDS011;10400;53.198;6.592;2023-08-06T05:45:07;12.50;;;9.25;;
20482;SDS011;10400;53.198;6.592;2023-08-06T05:47:33;12.90;;;8.88;;
20482;SDS011;10400;53.198;6.592;2023-08-06T05:49:58;11.95;;;8.98;;
20482;SDS011;10400;53.198;6.592;2023-08-06T05:52:24;13.35;;;9.20;;
20482;SDS011;10400;53.198;6.592;2023-08-06T05:54:50;10.48;;;8.52;;
20482;SDS011;10400;53.198;6.592;2023-08-06T05:57:16;11.60;;;8.90;;
20482;SDS011;10400;53.198;6.592;2023-08-06T05:59:42;12.73;;;9.50;;
20482;SDS011;10400;53.198;6.592;2023-08-06T06:02:08;12.90;;;9.00;;
20482;SDS011;10400;53.198;6.592;2023-08-06T06:04:34;10.95;;;9.10;;
20482;SDS011;10400;53.198;6.592;2023-08-06T06:07:00;12.98;;;9.32;;
20482;SDS011;10400;53.198;6.592;2023-08-06T06:09:25;12.82;;;8.90;;
20482;SDS011;10400;53.198;6.592;2023-08-06T06:11:51;11.90;;;8.75;;
20482;SDS011;10400;53.198;6.592;2023-08-06T06:14:17;14.15;;;9.27;;
20482;SDS011;10400;53.198;6.592;2023-08-06T06:16:43;11.63;;;8.60;;
20482;SDS011;10400;53.198;6.592;2023-08-06T06:19:09;11.02;;;9.23;;
20482;SDS011;10400;53.198;6.592;2023-08-06T06:21:35;12.60;;;9.27;;
20482;SDS011;10400;53.198;6.592;2023-08-06T06:24:00;9.13;;;8.10;;
20482;SDS011;10400;53.198;6.592;2023-08-06T06:26:26;11.18;;;8.52;;
20482;SDS011;10400;53.198;6.592;2023-08-06T06:28:52;13.90;;;8.02;;
20482;SDS011;10400;53.198;6.592;2023-08-06T06:31:18;9.40;;;8.02;;
20482;SDS011;10400;53.198;6.592;2023-08-06T06:33:43;10.98;;;7.43;;
20482;SDS011;10400;53.198;6.592;2023-08-06T06:36:09;10.15;;;7.53;;
20482;SDS011;10400;53.198;6.592;2023-08-06T06:38:34;8.93;;;7.28;;
20482;SDS011;10400;53.198;6.592;2023-08-06T06:41:00;9.73;;;7.68;;
20482;SDS011;10400;53.198;6.592;2023-08-06T06:43:28;9.48;;;6.55;;
20482;SDS011;10400;53.198;6.592;2023-08-06T06:45:57;9.43;;;6.85;;
20482;SDS011;10400;53.198;6.592;2023-08-06T06:48:26;7.97;;;6.88;;
20482;SDS011;10400;53.198;6.592;2023-08-06T06:50:52;10.48;;;7.65;;
20482;SDS011;10400;53.198;6.592;2023-08-06T06:53:18;9.10;;;6.88;;
20482;SDS011;10400;53.198;6.592;2023-08-06T06:55:44;10.35;;;6.93;;
20482;SDS011;10400;53.198;6.592;2023-08-06T06:58:09;11.55;;;7.10;;
20482;SDS011;10400;53.198;6.592;2023-08-06T07:00:36;6.82;;;6.13;;
20482;SDS011;10400;53.198;6.592;2023-08-06T07:03:02;8.50;;;6.45;;
20482;SDS011;10400;53.198;6.592;2023-08-06T07:05:28;9.07;;;6.43;;
20482;SDS011;10400;53.198;6.592;2023-08-06T07:07:54;8.27;;;6.30;;
20482;SDS011;10400;53.198;6.592;2023-08-06T07:10:19;7.13;;;6.03;;
20482;SDS011;10400;53.198;6.592;2023-08-06T07:12:45;7.25;;;5.72;;
20482;SDS011;10400;53.198;6.592;2023-08-06T07:15:11;6.78;;;5.65;;
20482;SDS011;10400;53.198;6.592;2023-08-06T07:17:36;8.65;;;5.68;;
20482;SDS011;10400;53.198;6.592;2023-08-06T07:20:02;6.80;;;5.75;;
20482;SDS011;10400;53.198;6.592;2023-08-06T07:22:29;6.53;;;5.90;;
20482;SDS011;10400;53.198;6.592;2023-08-06T07:24:54;8.30;;;5.95;;
20482;SDS011;10400;53.198;6.592;2023-08-06T07:27:20;7.68;;;5.40;;
20482;SDS011;10400;53.198;6.592;2023-08-06T07:29:46;8.57;;;5.75;;
20482;SDS011;10400;53.198;6.592;2023-08-06T07:32:13;6.63;;;5.82;;
20482;SDS011;10400;53.198;6.592;2023-08-06T07:34:38;5.88;;;5.28;;
20482;SDS011;10400;53.198;6.592;2023-08-06T07:37:04;9.18;;;5.72;;
20482;SDS011;10400;53.198;6.592;2023-08-06T07:39:30;6.20;;;5.45;;
20482;SDS011;10400;53.198;6.592;2023-08-06T07:41:56;6.05;;;5.28;;
20482;SDS011;10400;53.198;6.592;2023-08-06T07:44:22;5.97;;;4.97;;
20482;SDS011;10400;53.198;6.592;2023-08-06T07:46:48;7.70;;;5.60;;
20482;SDS011;10400;53.198;6.592;2023-08-06T07:49:14;5.60;;;5.10;;
20482;SDS011;10400;53.198;6.592;2023-08-06T07:51:40;8.77;;;4.80;;
20482;SDS011;10400;53.198;6.592;2023-08-06T07:54:05;6.30;;;4.78;;
20482;SDS011;10400;53.198;6.592;2023-08-06T07:56:32;6.45;;;4.72;;
20482;SDS011;10400;53.198;6.592;2023-08-06T07:58:57;4.93;;;4.40;;
20482;SDS011;10400;53.198;6.592;2023-08-06T08:01:23;5.47;;;4.30;;
20482;SDS011;10400;53.198;6.592;2023-08-06T08:03:48;4.70;;;4.20;;
20482;SDS011;10400;53.198;6.592;2023-08-06T08:06:14;5.15;;;4.05;;
20482;SDS011;10400;53.198;6.592;2023-08-06T08:08:40;5.47;;;3.83;;
20482;SDS011;10400;53.198;6.592;2023-08-06T08:11:06;6.35;;;4.00;;
20482;SDS011;10400;53.198;6.592;2023-08-06T08:13:31;5.95;;;4.13;;
20482;SDS011;10400;53.198;6.592;2023-08-06T08:15:57;6.07;;;4.30;;
20482;SDS011;10400;53.198;6.592;2023-08-06T08:18:24;4.28;;;3.88;;
20482;SDS011;10400;53.198;6.592;2023-08-06T08:20:50;6.10;;;3.78;;
20482;SDS011;10400;53.198;6.592;2023-08-06T08:23:16;6.53;;;3.95;;
20482;SDS011;10400;53.198;6.592;2023-08-06T08:25:41;6.40;;;3.95;;
20482;SDS011;10400;53.198;6.592;2023-08-06T08:28:07;5.50;;;3.83;;
20482;SDS011;10400;53.198;6.592;2023-08-06T08:30:33;5.75;;;3.60;;
20482;SDS011;10400;53.198;6.592;2023-08-06T08:32:58;7.47;;;3.75;;
20482;SDS011;10400;53.198;6.592;2023-08-06T08:35:24;7.30;;;4.07;;
20482;SDS011;10400;53.198;6.592;2023-08-06T08:37:50;8.48;;;4.25;;
20482;SDS011;10400;53.198;6.592;2023-08-06T08:40:16;3.80;;;3.35;;
20482;SDS011;10400;53.198;6.592;2023-08-06T08:42:42;4.22;;;3.38;;
20482;SDS011;10400;53.198;6.592;2023-08-06T08:45:12;4.72;;;2.88;;
20482;SDS011;10400;53.198;6.592;2023-08-06T08:47:39;4.00;;;2.90;;
20482;SDS011;10400;53.198;6.592;2023-08-06T08:50:09;3.25;;;2.80;;
20482;SDS011;10400;53.198;6.592;2023-08-06T08:52:39;5.47;;;3.03;;
20482;SDS011;10400;53.198;6.592;2023-08-06T08:55:06;4.40;;;2.92;;
20482;SDS011;10400;53.198;6.592;2023-08-06T08:57:33;3.10;;;2.72;;
20482;SDS011;10400;53.198;6.592;2023-08-06T08:59:58;3.10;;;2.70;;
20482;SDS011;10400;53.198;6.592;2023-08-06T09:02:25;3.72;;;3.00;;
20482;SDS011;10400;53.198;6.592;2023-08-06T09:04:57;3.45;;;2.78;;
20482;SDS011;10400;53.198;6.592;2023-08-06T09:07:27;4.05;;;2.97;;
20482;SDS011;10400;53.198;6.592;2023-08-06T09:10:01;3.92;;;2.55;;
20482;SDS011;10400;53.198;6.592;2023-08-06T09:12:28;3.47;;;2.70;;
20482;SDS011;10400;53.198;6.592;2023-08-06T09:14:54;3.85;;;2.90;;
20482;SDS011;10400;53.198;6.592;2023-08-06T09:17:20;6.13;;;2.90;;
20482;SDS011;10400;53.198;6.592;2023-08-06T09:19:46;4.88;;;2.40;;
20482;SDS011;10400;53.198;6.592;2023-08-06T09:22:13;5.35;;;2.35;;
20482;SDS011;10400;53.198;6.592;2023-08-06T09:24:43;2.45;;;2.25;;
20482;SDS011;10400;53.198;6.592;2023-08-06T09:27:12;3.05;;;2.00;;
20482;SDS011;10400;53.198;6.592;2023-08-06T09:29:42;3.83;;;2.22;;
20482;SDS011;10400;53.198;6.592;2023-08-06T09:32:10;2.92;;;1.77;;
20482;SDS011;10400;53.198;6.592;2023-08-06T09:34:41;2.38;;;1.73;;
20482;SDS011;10400;53.198;6.592;2023-08-06T09:37:10;2.72;;;2.15;;
20482;SDS011;10400;53.198;6.592;2023-08-06T09:39:37;4.55;;;2.08;;
20482;SDS011;10400;53.198;6.592;2023-08-06T09:42:04;3.28;;;1.98;;
20482;SDS011;10400;53.198;6.592;2023-08-06T09:44:30;3.88;;;1.90;;
20482;SDS011;10400;53.198;6.592;2023-08-06T09:46:58;3.40;;;1.33;;
20482;SDS011;10400;53.198;6.592;2023-08-06T09:49:28;3.05;;;2.00;;
20482;SDS011;10400;53.198;6.592;2023-08-06T09:51:57;2.67;;;1.55;;
20482;SDS011;10400;53.198;6.592;2023-08-06T09:54:24;2.83;;;1.85;;
20482;SDS011;10400;53.198;6.592;2023-08-06T09:56:52;2.83;;;1.67;;
20482;SDS011;10400;53.198;6.592;2023-08-06T09:59:21;3.97;;;1.70;;
20482;SDS011;10400;53.198;6.592;2023-08-06T10:01:48;2.20;;;1.55;;
20482;SDS011;10400;53.198;6.592;2023-08-06T10:04:14;4.35;;;1.80;;
20482;SDS011;10400;53.198;6.592;2023-08-06T10:06:46;2.95;;;1.65;;
20482;SDS011;10400;53.198;6.592;2023-08-06T10:09:13;3.42;;;1.70;;
20482;SDS011;10400;53.198;6.592;2023-08-06T10:11:39;4.00;;;1.77;;
20482;SDS011;10400;53.198;6.592;2023-08-06T10:16:38;5.72;;;1.80;;
20482;SDS011;10400;53.198;6.592;2023-08-06T10:19:05;2.95;;;1.70;;
20482;SDS011;10400;53.198;6.592;2023-08-06T10:21:32;2.45;;;1.60;;
20482;SDS011;10400;53.198;6.592;2023-08-06T10:23:58;3.75;;;1.60;;
20482;SDS011;10400;53.198;6.592;2023-08-06T10:26:27;3.72;;;1.45;;
20482;SDS011;10400;53.198;6.592;2023-08-06T10:28:53;1.70;;;1.50;;
20482;SDS011;10400;53.198;6.592;2023-08-06T10:31:20;3.58;;;1.50;;
20482;SDS011;10400;53.198;6.592;2023-08-06T10:34:05;2.17;;;1.23;;
20482;SDS011;10400;53.198;6.592;2023-08-06T10:36:32;4.97;;;1.75;;
20482;SDS011;10400;53.198;6.592;2023-08-06T10:38:58;2.15;;;1.50;;
20482;SDS011;10400;53.198;6.592;2023-08-06T10:41:27;3.60;;;2.10;;
20482;SDS011;10400;53.198;6.592;2023-08-06T10:44:06;4.45;;;1.90;;
20482;SDS011;10400;53.198;6.592;2023-08-06T10:46:36;3.10;;;2.03;;
20482;SDS011;10400;53.198;6.592;2023-08-06T10:49:03;3.50;;;1.98;;
20482;SDS011;10400;53.198;6.592;2023-08-06T10:51:29;4.35;;;1.70;;
20482;SDS011;10400;53.198;6.592;2023-08-06T10:53:55;3.63;;;2.25;;
20482;SDS011;10400;53.198;6.592;2023-08-06T10:56:24;2.83;;;1.92;;
20482;SDS011;10400;53.198;6.592;2023-08-06T10:58:52;2.33;;;1.60;;
20482;SDS011;10400;53.198;6.592;2023-08-06T11:01:20;4.32;;;1.80;;
20482;SDS011;10400;53.198;6.592;2023-08-06T11:03:47;2.17;;;1.63;;
20482;SDS011;10400;53.198;6.592;2023-08-06T11:06:18;2.17;;;1.75;;
20482;SDS011;10400;53.198;6.592;2023-08-06T11:08:49;3.13;;;1.58;;
20482;SDS011;10400;53.198;6.592;2023-08-06T11:11:16;1.92;;;1.30;;
20482;SDS011;10400;53.198;6.592;2023-08-06T11:13:46;6.57;;;1.40;;
20482;SDS011;10400;53.198;6.592;2023-08-06T11:16:13;2.08;;;1.50;;
20482;SDS011;10400;53.198;6.592;2023-08-06T11:18:40;2.28;;;1.58;;
20482;SDS011;10400;53.198;6.592;2023-08-06T11:21:07;1.67;;;1.55;;
20482;SDS011;10400;53.198;6.592;2023-08-06T11:23:33;1.17;;;1.02;;
20482;SDS011;10400;53.198;6.592;2023-08-06T11:26:00;1.75;;;1.20;;
20482;SDS011;10400;53.198;6.592;2023-08-06T11:28:26;2.22;;;1.73;;
20482;SDS011;10400;53.198;6.592;2023-08-06T11:30:52;4.18;;;1.60;;
20482;SDS011;10400;53.198;6.592;2023-08-06T11:33:26;2.22;;;1.38;;
20482;SDS011;10400;53.198;6.592;2023-08-06T11:35:56;3.13;;;1.67;;
20482;SDS011;10400;53.198;6.592;2023-08-06T11:38:29;2.85;;;1.75;;
20482;SDS011;10400;53.198;6.592;2023-08-06T11:40:55;3.22;;;1.60;;
20482;SDS011;10400;53.198;6.592;2023-08-06T11:43:22;2.53;;;1.63;;
20482;SDS011;10400;53.198;6.592;2023-08-06T11:45:51;2.50;;;1.50;;
20482;SDS011;10400;53.198;6.592;2023-08-06T11:48:20;2.33;;;1.73;;
20482;SDS011;10400;53.198;6.592;2023-08-06T11:50:45;2.15;;;1.23;;
20482;SDS011;10400;53.198;6.592;2023-08-06T11:53:14;1.73;;;1.55;;
20482;SDS011;10400;53.198;6.592;2023-08-06T11:55:40;2.83;;;1.70;;
20482;SDS011;10400;53.198;6.592;2023-08-06T11:58:06;3.33;;;1.42;;
20482;SDS011;10400;53.198;6.592;2023-08-06T12:00:32;2.35;;;1.45;;
20482;SDS011;10400;53.198;6.592;2023-08-06T12:02:58;4.07;;;1.83;;
20482;SDS011;10400;53.198;6.592;2023-08-06T12:05:28;2.83;;;1.60;;
20482;SDS011;10400;53.198;6.592;2023-08-06T12:07:59;3.38;;;1.48;;
20482;SDS011;10400;53.198;6.592;2023-08-06T12:10:26;3.72;;;1.65;;
20482;SDS011;10400;53.198;6.592;2023-08-06T12:12:56;1.83;;;1.30;;
20482;SDS011;10400;53.198;6.592;2023-08-06T12:15:22;2.53;;;1.45;;
20482;SDS011;10400;53.198;6.592;2023-08-06T12:17:48;2.47;;;1.70;;
20482;SDS011;10400;53.198;6.592;2023-08-06T12:20:15;2.75;;;1.30;;
20482;SDS011;10400;53.198;6.592;2023-08-06T12:22:40;2.72;;;1.58;;
20482;SDS011;10400;53.198;6.592;2023-08-06T12:25:10;3.92;;;1.60;;
20482;SDS011;10400;53.198;6.592;2023-08-06T12:27:40;4.22;;;1.70;;
20482;SDS011;10400;53.198;6.592;2023-08-06T12:30:07;2.20;;;1.40;;
20482;SDS011;10400;53.198;6.592;2023-08-06T12:32:34;1.45;;;1.27;;
20482;SDS011;10400;53.198;6.592;2023-08-06T12:35:00;3.38;;;1.17;;
20482;SDS011;10400;53.198;6.592;2023-08-06T12:37:26;2.65;;;1.98;;
20482;SDS011;10400;53.198;6.592;2023-08-06T12:39:52;3.22;;;1.70;;
20482;SDS011;10400;53.198;6.592;2023-08-06T12:42:18;2.70;;;1.40;;
20482;SDS011;10400;53.198;6.592;2023-08-06T12:44:44;3.92;;;1.90;;
20482;SDS011;10400;53.198;6.592;2023-08-06T12:47:09;2.25;;;1.60;;
20482;SDS011;10400;53.198;6.592;2023-08-06T12:49:35;4.00;;;1.60;;
20482;SDS011;10400;53.198;6.592;2023-08-06T12:52:01;2.95;;;1.60;;
20482;SDS011;10400;53.198;6.592;2023-08-06T12:54:30;2.75;;;1.40;;
20482;SDS011;10400;53.198;6.592;2023-08-06T12:57:01;3.63;;;1.50;;
20482;SDS011;10400;53.198;6.592;2023-08-06T12:59:27;2.33;;;1.67;;
20482;SDS011;10400;53.198;6.592;2023-08-06T13:01:53;4.95;;;1.23;;
20482;SDS011;10400;53.198;6.592;2023-08-06T13:04:18;1.90;;;1.38;;
20482;SDS011;10400;53.198;6.592;2023-08-06T13:06:44;3.92;;;1.48;;
20482;SDS011;10400;53.198;6.592;2023-08-06T13:09:10;2.70;;;1.50;;
20482;SDS011;10400;53.198;6.592;2023-08-06T13:11:36;4.32;;;1.35;;
20482;SDS011;10400;53.198;6.592;2023-08-06T13:14:08;1.83;;;1.40;;
20482;SDS011;10400;53.198;6.592;2023-08-06T13:16:38;2.95;;;1.58;;
20482;SDS011;10400;53.198;6.592;2023-08-06T13:19:05;2.15;;;1.30;;
20482;SDS011;10400;53.198;6.592;2023-08-06T13:21:57;8.10;;;1.50;;
20482;SDS011;10400;53.198;6.592;2023-08-06T13:24:25;2.22;;;1.50;;
20482;SDS011;10400;53.198;6.592;2023-08-06T13:26:52;2.20;;;1.55;;
20482;SDS011;10400;53.198;6.592;2023-08-06T13:29:18;3.10;;;1.30;;
20482;SDS011;10400;53.198;6.592;2023-08-06T13:31:43;2.78;;;1.20;;
20482;SDS011;10400;53.198;6.592;2023-08-06T13:34:09;2.78;;;1.50;;
20482;SDS011;10400;53.198;6.592;2023-08-06T13:36:35;3.17;;;1.40;;
20482;SDS011;10400;53.198;6.592;2023-08-06T13:39:00;2.78;;;1.42;;
20482;SDS011;10400;53.198;6.592;2023-08-06T13:41:26;3.65;;;1.50;;
20482;SDS011;10400;53.198;6.592;2023-08-06T13:43:51;5.30;;;1.63;;
20482;SDS011;10400;53.198;6.592;2023-08-06T13:46:17;3.47;;;1.33;;
20482;SDS011;10400;53.198;6.592;2023-08-06T13:48:45;2.85;;;1.60;;
20482;SDS011;10400;53.198;6.592;2023-08-06T13:51:11;3.60;;;1.30;;
20482;SDS011;10400;53.198;6.592;2023-08-06T13:53:38;3.13;;;1.48;;
20482;SDS011;10400;53.198;6.592;2023-08-06T13:56:05;1.40;;;1.23;;
20482;SDS011;10400;53.198;6.592;2023-08-06T13:58:31;1.60;;;1.30;;
20482;SDS011;10400;53.198;6.592;2023-08-06T14:00:57;2.70;;;1.48;;
20482;SDS011;10400;53.198;6.592;2023-08-06T14:03:23;1.92;;;1.40;;
20482;SDS011;10400;53.198;6.592;2023-08-06T14:05:49;1.60;;;1.20;;
20482;SDS011;10400;53.198;6.592;2023-08-06T14:08:15;5.15;;;1.50;;
20482;SDS011;10400;53.198;6.592;2023-08-06T14:10:43;2.38;;;1.67;;
20482;SDS011;10400;53.198;6.592;2023-08-06T14:13:09;3.25;;;1.63;;
20482;SDS011;10400;53.198;6.592;2023-08-06T14:15:35;4.95;;;1.80;;
20482;SDS011;10400;53.198;6.592;2023-08-06T14:18:01;2.35;;;1.45;;
20482;SDS011;10400;53.198;6.592;2023-08-06T14:20:27;2.03;;;1.40;;
20482;SDS011;10400;53.198;6.592;2023-08-06T14:22:53;2.17;;;1.25;;
20482;SDS011;10400;53.198;6.592;2023-08-06T14:25:19;2.15;;;1.50;;
20482;SDS011;10400;53.198;6.592;2023-08-06T14:27:45;2.10;;;1.20;;
20482;SDS011;10400;53.198;6.592;2023-08-06T14:30:11;1.90;;;1.33;;
20482;SDS011;10400;53.198;6.592;2023-08-06T14:32:36;1.55;;;1.23;;
20482;SDS011;10400;53.198;6.592;2023-08-06T14:35:02;2.67;;;1.30;;
20482;SDS011;10400;53.198;6.592;2023-08-06T14:37:28;1.77;;;1.35;;
20482;SDS011;10400;53.198;6.592;2023-08-06T14:39:54;2.38;;;1.50;;
20482;SDS011;10400;53.198;6.592;2023-08-06T14:42:19;2.92;;;1.48;;
20482;SDS011;10400;53.198;6.592;2023-08-06T14:44:45;3.92;;;1.13;;